Time;durP1;ratioP1;P1;durP2;ratioP2;P2;SDS_P1;SDS_P2;PMS_P1;PMS_P2;Temp;Humidity;BMP_temperature;BMP_pressure;BME280_temperature;BME280_humidity;BME280_pressure;Samples;Min_cycle;Max_cycle;Signal;HPM_P1;HPM_P2
2022/10/05 00:00:45;;;;;;;0.88;0.53;;;;;;;;;;1788385;79;26357;-53
2022/10/05 00:03:12;;;;;;;1.10;0.65;;;;;;;;;;1791730;79;26317;-55
2022/10/05 00:05:39;;;;;;;0.70;0.50;;;;;;;;;;1815723;79;26270;-56
2022/10/05 00:08:11;;;;;;;0.50;0.50;;;;;;;;;;1782298;79;26388;-54
2022/10/05 00:10:42;;;;;;;0.60;0.60;;;;;;;;;;1770877;79;26821;-56
2022/10/05 00:13:17;;;;;;;0.50;0.50;;;;;;;;;;1792534;79;26278;-51
2022/10/05 00:15:45;;;;;;;1.27;0.50;;;;;;;;;;1746769;79;26308;-56
2022/10/05 00:18:14;;;;;;;0.75;0.65;;;;;;;;;;1767606;79;26378;-53
2022/10/05 00:20:41;;;;;;;0.95;0.50;;;;;;;;;;1783069;79;26326;-57
2022/10/05 00:23:10;;;;;;;0.65;0.60;;;;;;;;;;1748471;79;26274;-55
2022/10/05 00:25:38;;;;;;;0.53;0.50;;;;;;;;;;1749168;79;26294;-53
2022/10/05 00:28:10;;;;;;;0.72;0.70;;;;;;;;;;1747593;79;26368;-56
2022/10/05 00:30:37;;;;;;;0.40;0.40;;;;;;;;;;1765125;79;26286;-56
2022/10/05 00:33:04;;;;;;;0.60;0.60;;;;;;;;;;1763669;79;26825;-56
2022/10/05 00:35:33;;;;;;;1.70;0.60;;;;;;;;;;1776477;79;26783;-55
2022/10/05 00:38:00;;;;;;;0.85;0.50;;;;;;;;;;1782686;79;26731;-56
2022/10/05 00:40:35;;;;;;;1.45;0.60;;;;;;;;;;1761939;79;26433;-52
2022/10/05 00:43:04;;;;;;;0.60;0.60;;;;;;;;;;1756313;79;26275;-55
2022/10/05 00:45:32;;;;;;;0.50;0.50;;;;;;;;;;1758826;79;26697;-54
2022/10/05 00:48:04;;;;;;;0.72;0.50;;;;;;;;;;1759265;79;26716;-53
2022/10/05 00:50:49;;;;;;;0.90;0.60;;;;;;;;;;1755476;79;26290;-54
2022/10/05 00:53:20;;;;;;;0.40;0.40;;;;;;;;;;1756122;79;26294;-55
2022/10/05 00:55:52;;;;;;;0.50;0.50;;;;;;;;;;1764805;79;26287;-56
2022/10/05 00:58:21;;;;;;;0.50;0.50;;;;;;;;;;1756413;79;26303;-53
2022/10/05 01:00:52;;;;;;;0.50;0.50;;;;;;;;;;1776558;81;26847;-52
2022/10/05 01:03:30;;;;;;;0.75;0.60;;;;;;;;;;1768859;79;26770;-57
2022/10/05 01:06:02;;;;;;;0.60;0.60;;;;;;;;;;1724124;82;26426;-55
2022/10/05 01:08:33;;;;;;;0.85;0.50;;;;;;;;;;1762604;79;26255;-56
2022/10/05 01:11:02;;;;;;;1.17;0.53;;;;;;;;;;1770229;79;26275;-54
2022/10/05 01:13:31;;;;;;;0.53;0.53;;;;;;;;;;1792065;79;26291;-55
2022/10/05 01:16:03;;;;;;;0.47;0.47;;;;;;;;;;1771371;79;26243;-53
2022/10/05 01:18:31;;;;;;;1.07;0.40;;;;;;;;;;1784211;78;26248;-56
2022/10/05 01:21:00;;;;;;;0.40;0.40;;;;;;;;;;1771964;79;26339;-53
2022/10/05 01:23:38;;;;;;;0.60;0.60;;;;;;;;;;1798200;79;26226;-56
2022/10/05 01:26:07;;;;;;;0.50;0.50;;;;;;;;;;1783846;79;26313;-53
2022/10/05 01:28:36;;;;;;;0.50;0.50;;;;;;;;;;1737380;79;26255;-54
2022/10/05 01:31:05;;;;;;;0.50;0.50;;;;;;;;;;1789311;78;26292;-54
2022/10/05 01:33:36;;;;;;;0.57;0.57;;;;;;;;;;1798531;79;26276;-53
2022/10/05 01:36:14;;;;;;;0.60;0.60;;;;;;;;;;1795877;79;26626;-53
2022/10/05 01:38:43;;;;;;;0.40;0.40;;;;;;;;;;1794391;79;27360;-52
2022/10/05 01:41:15;;;;;;;0.50;0.50;;;;;;;;;;1792939;79;26366;-54
2022/10/05 01:43:47;;;;;;;0.50;0.50;;;;;;;;;;1745057;79;26554;-53
2022/10/05 01:46:21;;;;;;;0.40;0.40;;;;;;;;;;1799530;79;26300;-55
2022/10/05 01:48:50;;;;;;;0.50;0.50;;;;;;;;;;1799884;79;26792;-55
2022/10/05 01:51:35;;;;;;;0.50;0.50;;;;;;;;;;1797733;79;26698;-51
2022/10/05 01:54:07;;;;;;;0.37;0.37;;;;;;;;;;1789313;78;26283;-56
2022/10/05 01:56:52;;;;;;;1.17;0.53;;;;;;;;;;1780855;79;26807;-53
2022/10/05 01:59:36;;;;;;;0.50;0.50;;;;;;;;;;1791633;79;26233;-54
2022/10/05 02:02:06;;;;;;;0.50;0.50;;;;;;;;;;1801869;78;26260;-56
2022/10/05 02:04:35;;;;;;;0.30;0.30;;;;;;;;;;1783436;79;27015;-58
2022/10/05 02:07:03;;;;;;;0.50;0.50;;;;;;;;;;1773067;78;26700;-56
2022/10/05 02:09:32;;;;;;;2.12;0.47;;;;;;;;;;1754506;79;26266;-55
2022/10/05 02:12:01;;;;;;;0.50;0.50;;;;;;;;;;1777054;79;26274;-55
2022/10/05 02:14:30;;;;;;;0.50;0.50;;;;;;;;;;1769141;79;26778;-55
2022/10/05 02:16:58;;;;;;;0.37;0.37;;;;;;;;;;1767906;79;26516;-53
2022/10/05 02:19:39;;;;;;;0.45;0.45;;;;;;;;;;1768770;79;26328;-53
2022/10/05 02:22:08;;;;;;;0.50;0.50;;;;;;;;;;1761478;79;26310;-56
2022/10/05 02:24:37;;;;;;;0.57;0.57;;;;;;;;;;1777022;79;26317;-54
2022/10/05 02:27:05;;;;;;;0.42;0.42;;;;;;;;;;1761423;79;26311;-51
2022/10/05 02:29:32;;;;;;;0.55;0.55;;;;;;;;;;1758407;79;26278;-55
2022/10/05 02:32:01;;;;;;;0.40;0.40;;;;;;;;;;1770933;79;26286;-56
2022/10/05 02:34:30;;;;;;;0.50;0.50;;;;;;;;;;1776274;79;26279;-53
2022/10/05 02:37:11;;;;;;;0.50;0.50;;;;;;;;;;1775043;79;26904;-57
2022/10/05 02:39:56;;;;;;;0.40;0.40;;;;;;;;;;1784839;79;26283;-55
2022/10/05 02:42:24;;;;;;;0.40;0.40;;;;;;;;;;1781286;79;26703;-54
2022/10/05 02:45:05;;;;;;;0.50;0.50;;;;;;;;;;1774732;79;26285;-56
2022/10/05 02:47:34;;;;;;;0.40;0.40;;;;;;;;;;1786945;79;26748;-55
2022/10/05 02:50:15;;;;;;;0.50;0.50;;;;;;;;;;1761707;79;26726;-55
2022/10/05 02:52:50;;;;;;;0.47;0.47;;;;;;;;;;1767547;79;26302;-54
2022/10/05 02:55:25;;;;;;;0.40;0.40;;;;;;;;;;1735419;79;26399;-53
2022/10/05 02:58:12;;;;;;;1.40;0.40;;;;;;;;;;1784704;79;26753;-54
2022/10/05 03:00:44;;;;;;;0.57;0.57;;;;;;;;;;1752829;79;26762;-52
2022/10/05 03:03:13;;;;;;;0.40;0.40;;;;;;;;;;1763211;79;26374;-55
2022/10/05 03:05:41;;;;;;;0.45;0.45;;;;;;;;;;1754754;79;26313;-52
2022/10/05 03:08:13;;;;;;;0.50;0.50;;;;;;;;;;1756006;79;26275;-54
2022/10/05 03:10:54;;;;;;;1.60;0.53;;;;;;;;;;1778584;78;26893;-54
2022/10/05 03:13:23;;;;;;;0.60;0.60;;;;;;;;;;1791668;79;26321;-55
2022/10/05 03:16:01;;;;;;;1.65;0.60;;;;;;;;;;1755559;79;26260;-57
2022/10/05 03:18:48;;;;;;;0.47;0.47;;;;;;;;;;1791622;78;26249;-53
2022/10/05 03:21:33;;;;;;;0.40;0.40;;;;;;;;;;1797203;79;26280;-55
2022/10/05 03:24:08;;;;;;;1.72;0.60;;;;;;;;;;1783810;79;26726;-55
2022/10/05 03:26:37;;;;;;;1.45;0.57;;;;;;;;;;1790749;79;26744;-54
2022/10/05 03:29:22;;;;;;;2.27;0.40;;;;;;;;;;1780025;79;27636;-51
2022/10/05 03:32:07;;;;;;;0.55;0.53;;;;;;;;;;1776208;79;27237;-54
2022/10/05 03:34:42;;;;;;;1.15;0.75;;;;;;;;;;1778050;79;26936;-55
2022/10/05 03:37:17;;;;;;;0.60;0.60;;;;;;;;;;1800849;79;26284;-55
2022/10/05 03:40:04;;;;;;;0.60;0.60;;;;;;;;;;1782343;79;26771;-56
2022/10/05 03:42:38;;;;;;;0.85;0.50;;;;;;;;;;1800134;79;26219;-54
2022/10/05 03:45:19;;;;;;;0.60;0.60;;;;;;;;;;1796014;79;26230;-54
2022/10/05 03:47:48;;;;;;;1.17;0.70;;;;;;;;;;1798933;78;26773;-54
2022/10/05 03:50:23;;;;;;;0.60;0.60;;;;;;;;;;1742654;79;26799;-56
2022/10/05 03:52:57;;;;;;;0.60;0.60;;;;;;;;;;1776574;79;26653;-54
2022/10/05 03:55:42;;;;;;;0.62;0.62;;;;;;;;;;1797921;79;26707;-56
2022/10/05 03:58:10;;;;;;;0.70;0.70;;;;;;;;;;1787948;79;26345;-56
2022/10/05 04:00:39;;;;;;;0.55;0.53;;;;;;;;;;1780234;79;26524;-56
2022/10/05 04:03:11;;;;;;;0.68;0.40;;;;;;;;;;1791652;78;27385;-54
2022/10/05 04:05:45;;;;;;;2.52;0.70;;;;;;;;;;1763096;79;26279;-53
2022/10/05 04:08:14;;;;;;;1.40;0.60;;;;;;;;;;1789054;79;26243;-55
2022/10/05 04:10:43;;;;;;;1.95;0.90;;;;;;;;;;1771455;79;26297;-55
2022/10/05 04:13:28;;;;;;;1.30;0.70;;;;;;;;;;1790479;78;26282;-54
2022/10/05 04:16:09;;;;;;;0.95;0.68;;;;;;;;;;1771403;79;26297;-55
2022/10/05 04:18:38;;;;;;;1.00;0.70;;;;;;;;;;1779894;78;26210;-56
2022/10/05 04:21:10;;;;;;;0.90;0.85;;;;;;;;;;1781890;79;26326;-52
2022/10/05 04:23:42;;;;;;;1.82;0.82;;;;;;;;;;1771550;79;26256;-55
2022/10/05 04:26:11;;;;;;;1.17;0.80;;;;;;;;;;1778416;79;26824;-50
2022/10/05 04:28:45;;;;;;;1.20;1.00;;;;;;;;;;1772603;79;26242;-61
2022/10/05 04:31:23;;;;;;;4.12;1.20;;;;;;;;;;1796963;79;26566;-55
2022/10/05 04:33:52;;;;;;;3.50;0.93;;;;;;;;;;1799892;79;26238;-55
2022/10/05 04:36:21;;;;;;;2.47;1.00;;;;;;;;;;1797347;78;26259;-53
2022/10/05 04:38:50;;;;;;;2.12;1.00;;;;;;;;;;1777740;78;26306;-57
2022/10/05 04:41:27;;;;;;;3.00;1.45;;;;;;;;;;1769361;79;26782;-55
2022/10/05 04:44:02;;;;;;;2.30;1.00;;;;;;;;;;1782869;78;26865;-55
2022/10/05 04:46:31;;;;;;;2.15;0.90;;;;;;;;;;1806055;78;26254;-50
2022/10/05 04:49:06;;;;;;;3.20;1.00;;;;;;;;;;1807139;78;26268;-54
2022/10/05 04:51:40;;;;;;;1.22;1.00;;;;;;;;;;1810825;78;26291;-56
2022/10/05 04:54:12;;;;;;;2.15;1.05;;;;;;;;;;1788850;78;26249;-56
2022/10/05 04:56:41;;;;;;;3.42;1.00;;;;;;;;;;1800423;78;26717;-50
2022/10/05 04:59:19;;;;;;;2.70;1.10;;;;;;;;;;1789859;79;26699;-54
2022/10/05 05:01:56;;;;;;;0.80;0.80;;;;;;;;;;1776862;78;26311;-54
2022/10/05 05:04:28;;;;;;;2.10;1.00;;;;;;;;;;1776368;78;26961;-54
2022/10/05 05:07:05;;;;;;;1.50;1.00;;;;;;;;;;1785398;78;26280;-55
2022/10/05 05:09:34;;;;;;;2.35;1.15;;;;;;;;;;1791649;79;26322;-51
2022/10/05 05:12:09;;;;;;;7.08;1.52;;;;;;;;;;1783778;79;26949;-57
2022/10/05 05:14:41;;;;;;;4.53;1.20;;;;;;;;;;1793474;79;26251;-56
2022/10/05 05:17:10;;;;;;;0.95;0.95;;;;;;;;;;1778700;79;27502;-53
2022/10/05 05:19:38;;;;;;;4.03;0.85;;;;;;;;;;1790304;79;26259;-55
2022/10/05 05:22:07;;;;;;;6.42;1.17;;;;;;;;;;1791454;79;26384;-56
2022/10/05 05:24:41;;;;;;;1.60;1.05;;;;;;;;;;1779969;79;26353;-55
2022/10/05 05:27:10;;;;;;;1.45;0.90;;;;;;;;;;1796976;79;27497;-54
2022/10/05 05:29:39;;;;;;;1.85;0.80;;;;;;;;;;1772011;79;26535;-52
2022/10/05 05:32:26;;;;;;;1.25;1.00;;;;;;;;;;1781168;79;26290;-52
2022/10/05 05:35:10;;;;;;;4.62;1.00;;;;;;;;;;1781344;79;26352;-54
2022/10/05 05:37:51;;;;;;;4.20;1.37;;;;;;;;;;1779822;79;26282;-53
2022/10/05 05:40:23;;;;;;;4.17;1.07;;;;;;;;;;1777125;79;26279;-53
2022/10/05 05:42:51;;;;;;;4.47;0.90;;;;;;;;;;1776894;79;26861;-54
2022/10/05 05:45:38;;;;;;;3.02;1.02;;;;;;;;;;1752704;79;27227;-53
2022/10/05 05:48:07;;;;;;;2.15;1.10;;;;;;;;;;1772075;79;26282;-53
2022/10/05 05:50:42;;;;;;;3.22;1.00;;;;;;;;;;1769375;79;26687;-55
2022/10/05 05:53:11;;;;;;;3.80;0.98;;;;;;;;;;1761558;79;26293;-53
2022/10/05 05:55:40;;;;;;;3.02;0.85;;;;;;;;;;1786871;79;26343;-53
2022/10/05 05:58:18;;;;;;;2.27;1.10;;;;;;;;;;1779098;79;26263;-50
2022/10/05 06:00:47;;;;;;;2.00;0.80;;;;;;;;;;1781349;79;26577;-53
2022/10/05 06:03:15;;;;;;;3.27;1.00;;;;;;;;;;1778384;79;26291;-55
2022/10/05 06:05:48;;;;;;;0.80;0.80;;;;;;;;;;1777497;79;26452;-54
2022/10/05 06:08:34;;;;;;;4.83;1.00;;;;;;;;;;1779393;79;26308;-55
2022/10/05 06:11:03;;;;;;;1.85;1.10;;;;;;;;;;1770832;78;26784;-54
2022/10/05 06:13:31;;;;;;;1.82;1.20;;;;;;;;;;1794767;78;27293;-53
2022/10/05 06:16:00;;;;;;;2.12;1.00;;;;;;;;;;1776651;79;26309;-54
2022/10/05 06:18:28;;;;;;;3.20;1.02;;;;;;;;;;1771011;79;26240;-55
2022/10/05 06:21:00;;;;;;;1.85;1.00;;;;;;;;;;1788349;78;26265;-54
2022/10/05 06:23:46;;;;;;;0.93;0.93;;;;;;;;;;1802093;78;26763;-52
2022/10/05 06:26:18;;;;;;;0.80;0.80;;;;;;;;;;1794959;79;26279;-54
2022/10/05 06:28:46;;;;;;;0.80;0.80;;;;;;;;;;1784003;79;26235;-57
2022/10/05 06:31:15;;;;;;;2.25;0.90;;;;;;;;;;1796844;79;26288;-53
2022/10/05 06:33:44;;;;;;;0.95;0.95;;;;;;;;;;1799716;79;26249;-51
2022/10/05 06:36:18;;;;;;;0.80;0.80;;;;;;;;;;1807035;79;26742;-55
2022/10/05 06:38:56;;;;;;;2.98;1.00;;;;;;;;;;1777051;78;26287;-56
2022/10/05 06:41:25;;;;;;;0.80;0.80;;;;;;;;;;1777477;78;26230;-54
2022/10/05 06:44:03;;;;;;;1.82;1.15;;;;;;;;;;1800668;79;26295;-52
2022/10/05 06:46:32;;;;;;;0.80;0.80;;;;;;;;;;1795317;78;26228;-53
2022/10/05 06:49:17;;;;;;;0.80;0.80;;;;;;;;;;1771798;79;26238;-54
2022/10/05 06:51:46;;;;;;;0.80;0.80;;;;;;;;;;1779947;79;26251;-53
2022/10/05 06:54:15;;;;;;;0.98;0.98;;;;;;;;;;1789107;78;26318;-55
2022/10/05 06:56:47;;;;;;;1.95;1.20;;;;;;;;;;1775935;78;26291;-54
2022/10/05 06:59:15;;;;;;;0.90;0.90;;;;;;;;;;1763366;79;26235;-51
2022/10/05 07:01:53;;;;;;;0.70;0.70;;;;;;;;;;1774171;79;26292;-53
2022/10/05 07:04:38;;;;;;;0.75;0.75;;;;;;;;;;1770887;79;26251;-54
2022/10/05 07:07:13;;;;;;;0.85;0.85;;;;;;;;;;1775216;78;26243;-53
2022/10/05 07:09:42;;;;;;;0.68;0.68;;;;;;;;;;1770629;79;26826;-51
2022/10/05 07:12:20;;;;;;;0.88;0.88;;;;;;;;;;1783545;78;26706;-54
2022/10/05 07:14:54;;;;;;;0.90;0.90;;;;;;;;;;1785084;79;26661;-52
2022/10/05 07:17:26;;;;;;;1.42;0.80;;;;;;;;;;1800119;79;26709;-56
2022/10/05 07:20:04;;;;;;;0.80;0.80;;;;;;;;;;1803246;79;26230;-53
2022/10/05 07:22:33;;;;;;;0.78;0.78;;;;;;;;;;1792478;79;26686;-54
2022/10/05 07:25:08;;;;;;;0.78;0.78;;;;;;;;;;1790021;79;26334;-55
2022/10/05 07:27:36;;;;;;;10.28;1.20;;;;;;;;;;1785375;79;26251;-51
2022/10/05 07:30:06;;;;;;;2.67;1.10;;;;;;;;;;1782581;79;27481;-54
2022/10/05 07:32:35;;;;;;;10.58;1.10;;;;;;;;;;1813954;79;26302;-58
2022/10/05 07:37:52;;;;;;;10.65;1.00;;;;;;;;;;1790543;79;26263;-54
2022/10/05 07:38:00;;;;;;;1.98;1.05;;;;;;;;;;1776436;78;26298;-56
2022/10/05 07:40:44;;;;;;;6.67;1.22;;;;;;;;;;1807802;78;26308;-55
2022/10/05 07:43:16;;;;;;;4.10;0.90;;;;;;;;;;1802480;78;26242;-55
2022/10/05 07:45:47;;;;;;;2.30;1.00;;;;;;;;;;1785121;79;26720;-55
2022/10/05 07:48:16;;;;;;;6.12;1.02;;;;;;;;;;1790737;79;26323;-54
2022/10/05 07:50:54;;;;;;;5.83;1.32;;;;;;;;;;1790648;79;26246;-54
2022/10/05 07:53:23;;;;;;;3.52;1.10;;;;;;;;;;1778995;79;26793;-55
2022/10/05 07:55:52;;;;;;;3.92;1.12;;;;;;;;;;1791662;79;26258;-52
2022/10/05 07:58:21;;;;;;;2.67;1.27;;;;;;;;;;1795120;79;26234;-55
2022/10/05 08:01:02;;;;;;;0.88;0.80;;;;;;;;;;1790450;79;26283;-55
2022/10/05 08:03:30;;;;;;;2.72;0.95;;;;;;;;;;1777099;79;26736;-53
2022/10/05 08:05:59;;;;;;;1.92;1.00;;;;;;;;;;1797174;79;26218;-55
2022/10/05 08:08:36;;;;;;;8.88;0.98;;;;;;;;;;1795713;79;26244;-55
2022/10/05 08:11:20;;;;;;;2.00;0.90;;;;;;;;;;1774316;79;26380;-56
2022/10/05 08:13:52;;;;;;;1.35;0.80;;;;;;;;;;1755379;79;26307;-57
2022/10/05 08:16:21;;;;;;;1.00;0.90;;;;;;;;;;1753319;79;26377;-57
2022/10/05 08:18:53;;;;;;;2.37;0.90;;;;;;;;;;1757806;79;26373;-57
2022/10/05 08:21:21;;;;;;;2.85;0.80;;;;;;;;;;1781479;79;26274;-56
2022/10/05 08:23:50;;;;;;;1.75;0.85;;;;;;;;;;1750793;79;26303;-57
2022/10/05 08:26:21;;;;;;;1.45;1.05;;;;;;;;;;1751600;79;26305;-55
2022/10/05 08:28:50;;;;;;;1.00;0.90;;;;;;;;;;1746913;79;27499;-56
2022/10/05 08:31:25;;;;;;;0.80;0.80;;;;;;;;;;1773675;79;26287;-56
2022/10/05 08:34:11;;;;;;;1.30;0.80;;;;;;;;;;1758574;81;26337;-57
2022/10/05 08:36:40;;;;;;;2.58;0.80;;;;;;;;;;1759740;79;26310;-57
2022/10/05 08:39:09;;;;;;;1.27;0.90;;;;;;;;;;1747266;81;26309;-57
2022/10/05 08:41:54;;;;;;;0.90;0.75;;;;;;;;;;1746759;79;26298;-57
2022/10/05 08:44:40;;;;;;;2.00;1.00;;;;;;;;;;1747021;81;26298;-57
2022/10/05 08:47:18;;;;;;;4.25;0.85;;;;;;;;;;1751183;79;26389;-57
2022/10/05 08:50:03;;;;;;;0.82;0.82;;;;;;;;;;1749621;79;26375;-56
2022/10/05 08:52:41;;;;;;;1.65;0.70;;;;;;;;;;1748055;79;26786;-56
2022/10/05 08:55:10;;;;;;;5.00;0.82;;;;;;;;;;1749334;79;26813;-56
2022/10/05 08:57:47;;;;;;;6.10;1.30;;;;;;;;;;1747241;81;26352;-57
2022/10/05 09:00:16;;;;;;;0.80;0.80;;;;;;;;;;1746235;81;26278;-57
2022/10/05 09:02:51;;;;;;;2.33;0.78;;;;;;;;;;1762561;79;26355;-55
2022/10/05 09:05:37;;;;;;;0.90;0.90;;;;;;;;;;1750876;80;26796;-57
2022/10/05 09:08:08;;;;;;;0.60;0.60;;;;;;;;;;1761946;79;26377;-55
2022/10/05 09:10:43;;;;;;;1.10;0.80;;;;;;;;;;1771387;79;27390;-56
2022/10/05 09:13:24;;;;;;;1.12;0.80;;;;;;;;;;1795788;78;26533;-57
2022/10/05 09:16:09;;;;;;;1.65;0.75;;;;;;;;;;1770246;79;26239;-58
2022/10/05 09:18:50;;;;;;;0.55;0.55;;;;;;;;;;1791734;79;26756;-56
2022/10/05 09:21:25;;;;;;;1.00;0.80;;;;;;;;;;1776321;79;26285;-58
2022/10/05 09:24:06;;;;;;;0.70;0.62;;;;;;;;;;1789730;79;26719;-57
2022/10/05 09:26:51;;;;;;;0.70;0.70;;;;;;;;;;1771431;79;26298;-55
2022/10/05 09:29:32;;;;;;;0.50;0.50;;;;;;;;;;1805865;78;26253;-57
2022/10/05 09:32:07;;;;;;;0.62;0.55;;;;;;;;;;1792528;78;26276;-56
2022/10/05 09:34:39;;;;;;;0.70;0.70;;;;;;;;;;1811282;78;26358;-57
2022/10/05 09:37:17;;;;;;;0.70;0.70;;;;;;;;;;1784770;79;26214;-55
2022/10/05 09:39:48;;;;;;;0.53;0.53;;;;;;;;;;1814730;79;26346;-53
2022/10/05 09:42:17;;;;;;;0.72;0.72;;;;;;;;;;1800181;79;27409;-57
2022/10/05 09:45:03;;;;;;;0.70;0.70;;;;;;;;;;1794760;78;26656;-57
2022/10/05 09:47:37;;;;;;;0.70;0.70;;;;;;;;;;1800243;79;26766;-57
2022/10/05 09:50:19;;;;;;;0.60;0.60;;;;;;;;;;1798783;78;26370;-58
2022/10/05 09:53:06;;;;;;;0.72;0.72;;;;;;;;;;1796074;78;26589;-57
2022/10/05 09:55:38;;;;;;;0.60;0.60;;;;;;;;;;1788367;79;26182;-57
2022/10/05 09:58:05;;;;;;;0.80;0.80;;;;;;;;;;1798062;79;26291;-57
2022/10/05 10:00:37;;;;;;;0.70;0.70;;;;;;;;;;1799538;78;26226;-57
2022/10/05 10:03:12;;;;;;;1.45;0.70;;;;;;;;;;1785219;79;26240;-57
2022/10/05 10:05:41;;;;;;;0.70;0.70;;;;;;;;;;1748367;78;26342;-57
2022/10/05 10:08:26;;;;;;;0.60;0.60;;;;;;;;;;1774044;79;26312;-56
2022/10/05 10:10:55;;;;;;;0.78;0.78;;;;;;;;;;1772082;79;26247;-57
2022/10/05 10:13:36;;;;;;;0.70;0.70;;;;;;;;;;1790967;79;26234;-57
2022/10/05 10:16:14;;;;;;;0.80;0.80;;;;;;;;;;1771466;79;26367;-55
2022/10/05 10:18:44;;;;;;;0.70;0.70;;;;;;;;;;1764368;79;26313;-56
2022/10/05 10:21:13;;;;;;;1.17;0.72;;;;;;;;;;1759996;79;27302;-58
2022/10/05 10:23:45;;;;;;;1.30;0.80;;;;;;;;;;1763166;79;26724;-57
2022/10/05 10:26:16;;;;;;;0.72;0.72;;;;;;;;;;1767836;79;26367;-57
2022/10/05 10:28:57;;;;;;;0.70;0.70;;;;;;;;;;1771484;79;26288;-58
2022/10/05 10:31:43;;;;;;;0.88;0.70;;;;;;;;;;1786713;79;26388;-56
2022/10/05 10:34:27;;;;;;;0.75;0.75;;;;;;;;;;1752338;79;26681;-57
2022/10/05 10:36:59;;;;;;;1.42;0.70;;;;;;;;;;1754753;79;26325;-58
2022/10/05 10:39:33;;;;;;;0.70;0.70;;;;;;;;;;1751713;79;26750;-57
2022/10/05 10:42:05;;;;;;;0.72;0.72;;;;;;;;;;1763290;79;26762;-56
2022/10/05 10:44:40;;;;;;;1.65;0.60;;;;;;;;;;1751390;79;26286;-56
2022/10/05 10:47:12;;;;;;;1.50;0.75;;;;;;;;;;1752465;79;26770;-57
2022/10/05 10:49:44;;;;;;;1.72;1.15;;;;;;;;;;1754168;79;26802;-56
2022/10/05 10:52:13;;;;;;;0.80;0.80;;;;;;;;;;1787490;79;26597;-56
2022/10/05 10:54:45;;;;;;;1.00;0.60;;;;;;;;;;1759142;79;26305;-58
2022/10/05 10:57:14;;;;;;;0.95;0.65;;;;;;;;;;1771165;79;26290;-56
2022/10/05 10:59:46;;;;;;;0.78;0.78;;;;;;;;;;1746022;79;26324;-55
2022/10/05 11:02:21;;;;;;;0.60;0.60;;;;;;;;;;1771625;79;26324;-57
2022/10/05 11:04:53;;;;;;;0.78;0.78;;;;;;;;;;1767278;79;26303;-56
2022/10/05 11:07:24;;;;;;;0.60;0.60;;;;;;;;;;1760552;79;26376;-57
2022/10/05 11:09:56;;;;;;;0.70;0.70;;;;;;;;;;1769596;79;26723;-58
2022/10/05 11:12:31;;;;;;;0.60;0.60;;;;;;;;;;1784929;78;26333;-57
2022/10/05 11:15:09;;;;;;;0.70;0.70;;;;;;;;;;1763957;78;26284;-58
2022/10/05 11:17:54;;;;;;;0.60;0.60;;;;;;;;;;1765110;79;26386;-57
2022/10/05 11:20:41;;;;;;;1.62;0.70;;;;;;;;;;1767160;79;27397;-55
2022/10/05 11:23:22;;;;;;;0.70;0.70;;;;;;;;;;1763636;79;26709;-57
2022/10/05 11:26:00;;;;;;;1.30;0.50;;;;;;;;;;1769544;79;26227;-58
2022/10/05 11:28:29;;;;;;;0.62;0.62;;;;;;;;;;1775334;79;26296;-57
2022/10/05 11:31:14;;;;;;;0.60;0.60;;;;;;;;;;1786724;79;26265;-56
2022/10/05 11:33:47;;;;;;;0.50;0.50;;;;;;;;;;1786770;79;26351;-57
2022/10/05 11:36:34;;;;;;;0.60;0.60;;;;;;;;;;1786350;79;26786;-56
2022/10/05 11:39:19;;;;;;;0.65;0.65;;;;;;;;;;1785336;79;26305;-57
2022/10/05 11:41:54;;;;;;;0.62;0.62;;;;;;;;;;1798476;79;26239;-57
2022/10/05 11:44:23;;;;;;;0.60;0.60;;;;;;;;;;1784116;79;26588;-57
2022/10/05 11:46:52;;;;;;;0.40;0.40;;;;;;;;;;1786670;79;26223;-58
2022/10/05 11:49:27;;;;;;;0.60;0.60;;;;;;;;;;1786859;79;26219;-55
2022/10/05 11:52:12;;;;;;;0.57;0.57;;;;;;;;;;1794426;79;26340;-55
2022/10/05 11:54:41;;;;;;;0.72;0.72;;;;;;;;;;1770364;79;26840;-56
2022/10/05 11:57:12;;;;;;;0.50;0.50;;;;;;;;;;1786080;79;26328;-56
2022/10/05 11:59:41;;;;;;;0.50;0.50;;;;;;;;;;1786574;79;26265;-57
2022/10/05 12:02:22;;;;;;;0.55;0.55;;;;;;;;;;1800125;79;26352;-55
2022/10/05 12:05:10;;;;;;;0.50;0.50;;;;;;;;;;1783310;79;27527;-57
2022/10/05 12:07:47;;;;;;;0.60;0.60;;;;;;;;;;1781399;79;27485;-58
2022/10/05 12:10:31;;;;;;;0.95;0.50;;;;;;;;;;1786588;79;26344;-57
2022/10/05 12:13:01;;;;;;;0.50;0.50;;;;;;;;;;1800205;78;26314;-57
2022/10/05 12:15:30;;;;;;;0.53;0.53;;;;;;;;;;1768565;79;26770;-56
2022/10/05 12:18:14;;;;;;;1.37;0.50;;;;;;;;;;1745962;79;26303;-57
2022/10/05 12:20:46;;;;;;;0.50;0.50;;;;;;;;;;1767654;79;26305;-57
2022/10/05 12:23:14;;;;;;;0.60;0.60;;;;;;;;;;1772476;79;26291;-56
2022/10/05 12:25:43;;;;;;;0.50;0.50;;;;;;;;;;1756780;79;26295;-58
2022/10/05 12:28:12;;;;;;;0.50;0.50;;;;;;;;;;1770291;79;26302;-57
2022/10/05 12:30:41;;;;;;;0.50;0.50;;;;;;;;;;1770889;79;26739;-57
2022/10/05 12:33:16;;;;;;;0.60;0.60;;;;;;;;;;1760984;79;26286;-57
2022/10/05 12:35:47;;;;;;;0.50;0.50;;;;;;;;;;1780935;79;26700;-58
2022/10/05 12:38:27;;;;;;;0.50;0.50;;;;;;;;;;1776708;79;26280;-57
2022/10/05 12:41:08;;;;;;;0.55;0.55;;;;;;;;;;1778455;79;26696;-57
2022/10/05 12:43:39;;;;;;;0.40;0.40;;;;;;;;;;1780934;79;26315;-57
2022/10/05 12:46:23;;;;;;;0.50;0.50;;;;;;;;;;1780556;79;26279;-58
2022/10/05 12:48:54;;;;;;;0.45;0.45;;;;;;;;;;1763983;79;26290;-58
2022/10/05 12:51:41;;;;;;;0.40;0.40;;;;;;;;;;1782205;79;26254;-57
2022/10/05 12:54:25;;;;;;;0.50;0.50;;;;;;;;;;1790980;79;27509;-55
2022/10/05 12:57:03;;;;;;;0.40;0.40;;;;;;;;;;1766719;79;26315;-58
2022/10/05 12:59:40;;;;;;;0.55;0.55;;;;;;;;;;1781260;79;26337;-54
2022/10/05 13:02:12;;;;;;;0.50;0.50;;;;;;;;;;1787790;79;26299;-57
2022/10/05 13:04:47;;;;;;;0.40;0.40;;;;;;;;;;1802117;79;26326;-57
2022/10/05 13:07:22;;;;;;;0.40;0.40;;;;;;;;;;1766690;79;26316;-57
2022/10/05 13:09:50;;;;;;;0.45;0.45;;;;;;;;;;1752563;79;26327;-58
2022/10/05 13:12:19;;;;;;;0.50;0.50;;;;;;;;;;1780375;78;26294;-58
2022/10/05 13:14:57;;;;;;;0.40;0.40;;;;;;;;;;1767748;78;26244;-57
2022/10/05 13:17:26;;;;;;;0.50;0.50;;;;;;;;;;1758467;79;26225;-58
2022/10/05 13:20:01;;;;;;;0.50;0.50;;;;;;;;;;1762296;79;26227;-57
2022/10/05 13:22:42;;;;;;;0.45;0.45;;;;;;;;;;1780408;79;26847;-57
2022/10/05 13:25:16;;;;;;;0.40;0.40;;;;;;;;;;1758239;79;26312;-56
2022/10/05 13:27:57;;;;;;;0.47;0.47;;;;;;;;;;1759154;79;26284;-57
2022/10/05 13:30:24;;;;;;;0.50;0.50;;;;;;;;;;1772944;79;26273;-58
2022/10/05 13:32:58;;;;;;;0.60;0.60;;;;;;;;;;1791540;79;27612;-58
2022/10/05 13:35:30;;;;;;;0.42;0.42;;;;;;;;;;1789264;79;26713;-56
2022/10/05 13:38:15;;;;;;;0.60;0.60;;;;;;;;;;1761678;79;26291;-57
2022/10/05 13:40:47;;;;;;;0.50;0.50;;;;;;;;;;1759060;79;26359;-57
2022/10/05 13:43:16;;;;;;;0.40;0.40;;;;;;;;;;1758682;79;26347;-57
2022/10/05 13:46:00;;;;;;;0.42;0.42;;;;;;;;;;1759452;79;26252;-56
2022/10/05 13:48:47;;;;;;;0.30;0.30;;;;;;;;;;1758059;79;26327;-57
2022/10/05 13:51:16;;;;;;;0.40;0.40;;;;;;;;;;1780696;79;26702;-57
2022/10/05 13:53:45;;;;;;;0.60;0.60;;;;;;;;;;1758576;79;26307;-57
2022/10/05 13:56:23;;;;;;;0.60;0.60;;;;;;;;;;1755925;79;26355;-54
2022/10/05 13:58:51;;;;;;;0.40;0.40;;;;;;;;;;1766630;79;26285;-57
2022/10/05 14:01:29;;;;;;;0.50;0.50;;;;;;;;;;1767103;79;27347;-56
2022/10/05 14:04:07;;;;;;;0.42;0.42;;;;;;;;;;1766887;79;26273;-54
2022/10/05 14:06:36;;;;;;;0.50;0.50;;;;;;;;;;1775481;80;26348;-56
2022/10/05 14:09:03;;;;;;;0.47;0.47;;;;;;;;;;1762701;79;26266;-57
2022/10/05 14:11:32;;;;;;;0.50;0.50;;;;;;;;;;1783392;79;26266;-57
2022/10/05 14:14:16;;;;;;;0.30;0.30;;;;;;;;;;1766137;79;26403;-57
2022/10/05 14:16:45;;;;;;;0.60;0.60;;;;;;;;;;1768342;79;26286;-57
2022/10/05 14:19:21;;;;;;;0.60;0.60;;;;;;;;;;1759507;79;27279;-57
2022/10/05 14:21:48;;;;;;;0.40;0.40;;;;;;;;;;1752773;79;26744;-57
2022/10/05 14:24:26;;;;;;;0.40;0.40;;;;;;;;;;1770759;79;26370;-57
2022/10/05 14:26:54;;;;;;;0.60;0.60;;;;;;;;;;1755288;79;26329;-57
2022/10/05 14:29:26;;;;;;;0.57;0.57;;;;;;;;;;1755495;81;26356;-57
2022/10/05 14:32:01;;;;;;;0.50;0.50;;;;;;;;;;1788176;79;26290;-58
2022/10/05 14:34:34;;;;;;;0.60;0.60;;;;;;;;;;1767160;79;26318;-56
2022/10/05 14:37:21;;;;;;;0.45;0.45;;;;;;;;;;1754621;79;26243;-56
2022/10/05 14:39:50;;;;;;;0.60;0.60;;;;;;;;;;1746854;81;26258;-56
2022/10/05 14:42:22;;;;;;;0.70;0.70;;;;;;;;;;1747039;81;26397;-56
2022/10/05 14:44:58;;;;;;;0.60;0.60;;;;;;;;;;1747836;79;26330;-58
2022/10/05 14:47:29;;;;;;;0.40;0.40;;;;;;;;;;1746981;81;26815;-58
2022/10/05 14:50:16;;;;;;;0.60;0.60;;;;;;;;;;1750825;79;26389;-56
2022/10/05 14:52:46;;;;;;;0.75;0.50;;;;;;;;;;1756748;79;26389;-58
2022/10/05 14:55:16;;;;;;;0.50;0.50;;;;;;;;;;1747363;79;26389;-57
2022/10/05 14:58:00;;;;;;;0.42;0.42;;;;;;;;;;1750935;79;26298;-56
2022/10/05 15:00:28;;;;;;;0.50;0.50;;;;;;;;;;1754611;79;26231;-57
2022/10/05 15:03:09;;;;;;;0.60;0.60;;;;;;;;;;1776603;79;26217;-56
2022/10/05 15:05:40;;;;;;;0.60;0.60;;;;;;;;;;1784075;79;26259;-56
2022/10/05 15:08:27;;;;;;;0.50;0.50;;;;;;;;;;1762204;79;26291;-57
2022/10/05 15:10:56;;;;;;;0.60;0.60;;;;;;;;;;1776232;79;26841;-56
2022/10/05 15:13:25;;;;;;;0.50;0.50;;;;;;;;;;1792648;79;26236;-57
2022/10/05 15:16:12;;;;;;;0.57;0.57;;;;;;;;;;1771718;79;26664;-58
2022/10/05 15:18:44;;;;;;;0.50;0.50;;;;;;;;;;1779057;78;26734;-57
2022/10/05 15:21:25;;;;;;;0.50;0.50;;;;;;;;;;1785651;79;26256;-57
2022/10/05 15:23:54;;;;;;;0.50;0.50;;;;;;;;;;1771783;79;26345;-58